sensor_id;sensor_type;location;lat;lon;timestamp;P1;durP1;ratioP1;P2;durP2;ratioP2
20283;SDS011;10301;50.832;4.080;2022-11-18T00:02:02;4.43;;;1.83;;
20283;SDS011;10301;50.832;4.080;2022-11-18T00:04:28;4.23;;;1.90;;
20283;SDS011;10301;50.832;4.080;2022-11-18T00:06:53;5.73;;;1.53;;
20283;SDS011;10301;50.832;4.080;2022-11-18T00:09:19;4.13;;;2.23;;
20283;SDS011;10301;50.832;4.080;2022-11-18T00:11:45;3.90;;;1.80;;
20283;SDS011;10301;50.832;4.080;2022-11-18T00:14:29;5.70;;;1.90;;
20283;SDS011;10301;50.832;4.080;2022-11-18T00:16:56;6.10;;;1.93;;
20283;SDS011;10301;50.832;4.080;2022-11-18T00:19:27;7.40;;;1.97;;
20283;SDS011;10301;50.832;4.080;2022-11-18T00:21:54;3.57;;;1.50;;
20283;SDS011;10301;50.832;4.080;2022-11-18T00:24:20;5.50;;;1.60;;
20283;SDS011;10301;50.832;4.080;2022-11-18T00:26:46;6.93;;;1.70;;
20283;SDS011;10301;50.832;4.080;2022-11-18T00:29:12;4.07;;;1.53;;
20283;SDS011;10301;50.832;4.080;2022-11-18T00:31:37;5.57;;;1.63;;
20283;SDS011;10301;50.832;4.080;2022-11-18T00:34:03;3.90;;;1.77;;
20283;SDS011;10301;50.832;4.080;2022-11-18T00:36:30;4.57;;;1.57;;
20283;SDS011;10301;50.832;4.080;2022-11-18T00:38:55;6.70;;;1.97;;
20283;SDS011;10301;50.832;4.080;2022-11-18T00:41:21;5.60;;;1.90;;
20283;SDS011;10301;50.832;4.080;2022-11-18T00:43:47;4.50;;;1.63;;
20283;SDS011;10301;50.832;4.080;2022-11-18T00:46:12;8.03;;;1.83;;
20283;SDS011;10301;50.832;4.080;2022-11-18T00:48:38;7.27;;;1.50;;
20283;SDS011;10301;50.832;4.080;2022-11-18T00:51:14;5.60;;;1.63;;
20283;SDS011;10301;50.832;4.080;2022-11-18T00:53:42;5.27;;;1.80;;
20283;SDS011;10301;50.832;4.080;2022-11-18T00:56:08;7.23;;;1.80;;
20283;SDS011;10301;50.832;4.080;2022-11-18T00:58:34;5.70;;;1.60;;
20283;SDS011;10301;50.832;4.080;2022-11-18T01:01:01;6.27;;;2.17;;
20283;SDS011;10301;50.832;4.080;2022-11-18T01:03:27;5.33;;;1.60;;
20283;SDS011;10301;50.832;4.080;2022-11-18T01:05:53;6.03;;;1.93;;
20283;SDS011;10301;50.832;4.080;2022-11-18T01:08:19;5.00;;;1.87;;
20283;SDS011;10301;50.832;4.080;2022-11-18T01:10:45;8.70;;;2.00;;
20283;SDS011;10301;50.832;4.080;2022-11-18T01:13:12;6.87;;;1.80;;
20283;SDS011;10301;50.832;4.080;2022-11-18T01:15:46;4.57;;;1.70;;
20283;SDS011;10301;50.832;4.080;2022-11-18T01:18:15;5.33;;;1.80;;
20283;SDS011;10301;50.832;4.080;2022-11-18T01:20:41;4.80;;;1.70;;
20283;SDS011;10301;50.832;4.080;2022-11-18T01:23:08;9.20;;;2.03;;
20283;SDS011;10301;50.832;4.080;2022-11-18T01:25:34;5.90;;;1.83;;
20283;SDS011;10301;50.832;4.080;2022-11-18T01:28:01;5.43;;;1.70;;
20283;SDS011;10301;50.832;4.080;2022-11-18T01:30:27;4.17;;;1.60;;
20283;SDS011;10301;50.832;4.080;2022-11-18T01:32:53;7.87;;;1.87;;
20283;SDS011;10301;50.832;4.080;2022-11-18T01:35:21;4.57;;;1.70;;
20283;SDS011;10301;50.832;4.080;2022-11-18T01:37:46;6.57;;;2.10;;
20283;SDS011;10301;50.832;4.080;2022-11-18T01:40:12;5.77;;;1.73;;
20283;SDS011;10301;50.832;4.080;2022-11-18T01:42:38;8.43;;;2.37;;
20283;SDS011;10301;50.832;4.080;2022-11-18T01:47:56;7.90;;;1.60;;
20283;SDS011;10301;50.832;4.080;2022-11-18T01:50:25;5.40;;;1.87;;
20283;SDS011;10301;50.832;4.080;2022-11-18T01:52:52;6.83;;;2.30;;
20283;SDS011;10301;50.832;4.080;2022-11-18T01:55:24;5.77;;;2.33;;
20283;SDS011;10301;50.832;4.080;2022-11-18T01:57:52;3.50;;;1.60;;
20283;SDS011;10301;50.832;4.080;2022-11-18T02:00:26;4.77;;;2.37;;
20283;SDS011;10301;50.832;4.080;2022-11-18T02:02:51;4.70;;;1.70;;
20283;SDS011;10301;50.832;4.080;2022-11-18T02:05:17;5.37;;;2.07;;
20283;SDS011;10301;50.832;4.080;2022-11-18T02:07:44;5.77;;;2.03;;
20283;SDS011;10301;50.832;4.080;2022-11-18T02:10:16;7.13;;;2.00;;
20283;SDS011;10301;50.832;4.080;2022-11-18T02:12:43;8.40;;;2.27;;
20283;SDS011;10301;50.832;4.080;2022-11-18T02:15:09;6.63;;;2.13;;
20283;SDS011;10301;50.832;4.080;2022-11-18T02:20:19;4.13;;;2.00;;
20283;SDS011;10301;50.832;4.080;2022-11-18T02:25:46;7.60;;;2.27;;
20283;SDS011;10301;50.832;4.080;2022-11-18T02:28:46;7.10;;;2.40;;
20283;SDS011;10301;50.832;4.080;2022-11-18T02:36:46;5.10;;;2.07;;
20283;SDS011;10301;50.832;4.080;2022-11-18T02:39:32;10.00;;;2.30;;
20283;SDS011;10301;50.832;4.080;2022-11-18T02:42:03;8.37;;;2.60;;
20283;SDS011;10301;50.832;4.080;2022-11-18T02:44:33;5.27;;;2.30;;
20283;SDS011;10301;50.832;4.080;2022-11-18T02:47:02;8.20;;;2.53;;
20283;SDS011;10301;50.832;4.080;2022-11-18T02:49:33;7.57;;;2.50;;
20283;SDS011;10301;50.832;4.080;2022-11-18T02:52:03;6.20;;;2.50;;
20283;SDS011;10301;50.832;4.080;2022-11-18T02:54:30;7.43;;;2.53;;
20283;SDS011;10301;50.832;4.080;2022-11-18T02:56:58;6.80;;;2.43;;
20283;SDS011;10301;50.832;4.080;2022-11-18T02:59:26;6.73;;;2.70;;
20283;SDS011;10301;50.832;4.080;2022-11-18T03:01:52;7.63;;;2.60;;
20283;SDS011;10301;50.832;4.080;2022-11-18T03:04:18;9.40;;;2.50;;
20283;SDS011;10301;50.832;4.080;2022-11-18T03:06:53;7.77;;;2.60;;
20283;SDS011;10301;50.832;4.080;2022-11-18T03:09:41;7.27;;;2.60;;
20283;SDS011;10301;50.832;4.080;2022-11-18T03:12:58;9.07;;;2.73;;
20283;SDS011;10301;50.832;4.080;2022-11-18T03:20:46;7.50;;;2.60;;
20283;SDS011;10301;50.832;4.080;2022-11-18T03:23:37;8.87;;;2.90;;
20283;SDS011;10301;50.832;4.080;2022-11-18T03:26:12;7.17;;;2.67;;
20283;SDS011;10301;50.832;4.080;2022-11-18T03:28:52;6.50;;;2.97;;
20283;SDS011;10301;50.832;4.080;2022-11-18T03:31:27;7.20;;;2.80;;
20283;SDS011;10301;50.832;4.080;2022-11-18T03:34:02;8.53;;;2.53;;
20283;SDS011;10301;50.832;4.080;2022-11-18T03:36:32;11.00;;;2.50;;
20283;SDS011;10301;50.832;4.080;2022-11-18T03:39:04;7.87;;;2.80;;
20283;SDS011;10301;50.832;4.080;2022-11-18T03:41:33;7.30;;;2.53;;
20283;SDS011;10301;50.832;4.080;2022-11-18T03:44:05;8.70;;;2.50;;
20283;SDS011;10301;50.832;4.080;2022-11-18T03:46:38;6.03;;;2.40;;
20283;SDS011;10301;50.832;4.080;2022-11-18T03:49:14;7.87;;;2.87;;
20283;SDS011;10301;50.832;4.080;2022-11-18T03:51:46;8.73;;;2.73;;
20283;SDS011;10301;50.832;4.080;2022-11-18T03:54:19;6.77;;;2.57;;
20283;SDS011;10301;50.832;4.080;2022-11-18T03:57:11;5.57;;;2.50;;
20283;SDS011;10301;50.832;4.080;2022-11-18T03:59:44;5.17;;;2.40;;
20283;SDS011;10301;50.832;4.080;2022-11-18T04:02:16;6.83;;;2.67;;
20283;SDS011;10301;50.832;4.080;2022-11-18T04:04:45;6.37;;;2.70;;
20283;SDS011;10301;50.832;4.080;2022-11-18T04:07:21;7.53;;;2.73;;
20283;SDS011;10301;50.832;4.080;2022-11-18T04:09:59;6.97;;;2.63;;
20283;SDS011;10301;50.832;4.080;2022-11-18T04:12:48;7.33;;;2.90;;
20283;SDS011;10301;50.832;4.080;2022-11-18T04:15:15;6.60;;;2.53;;
20283;SDS011;10301;50.832;4.080;2022-11-18T04:17:41;9.47;;;2.80;;
20283;SDS011;10301;50.832;4.080;2022-11-18T04:20:12;6.13;;;2.50;;
20283;SDS011;10301;50.832;4.080;2022-11-18T04:22:40;7.93;;;2.70;;
20283;SDS011;10301;50.832;4.080;2022-11-18T04:25:06;8.40;;;2.50;;
20283;SDS011;10301;50.832;4.080;2022-11-18T04:27:32;6.27;;;2.77;;
20283;SDS011;10301;50.832;4.080;2022-11-18T04:29:58;6.90;;;2.80;;
20283;SDS011;10301;50.832;4.080;2022-11-18T04:32:23;5.37;;;2.40;;
20283;SDS011;10301;50.832;4.080;2022-11-18T04:34:49;7.23;;;2.67;;
20283;SDS011;10301;50.832;4.080;2022-11-18T04:37:14;8.63;;;2.40;;
20283;SDS011;10301;50.832;4.080;2022-11-18T04:39:43;8.27;;;3.00;;
20283;SDS011;10301;50.832;4.080;2022-11-18T04:42:09;8.93;;;3.10;;
20283;SDS011;10301;50.832;4.080;2022-11-18T04:44:34;7.10;;;2.60;;
20283;SDS011;10301;50.832;4.080;2022-11-18T04:47:01;8.07;;;2.97;;
20283;SDS011;10301;50.832;4.080;2022-11-18T04:49:29;7.43;;;2.10;;
20283;SDS011;10301;50.832;4.080;2022-11-18T04:51:55;9.20;;;2.77;;
20283;SDS011;10301;50.832;4.080;2022-11-18T04:54:22;6.30;;;2.80;;
20283;SDS011;10301;50.832;4.080;2022-11-18T04:56:48;10.40;;;3.10;;
20283;SDS011;10301;50.832;4.080;2022-11-18T04:59:15;7.83;;;2.80;;
20283;SDS011;10301;50.832;4.080;2022-11-18T05:01:43;7.77;;;3.00;;
20283;SDS011;10301;50.832;4.080;2022-11-18T05:04:11;8.10;;;2.67;;
20283;SDS011;10301;50.832;4.080;2022-11-18T05:06:38;6.07;;;2.50;;
20283;SDS011;10301;50.832;4.080;2022-11-18T05:09:04;7.37;;;2.83;;
20283;SDS011;10301;50.832;4.080;2022-11-18T05:11:29;8.43;;;2.70;;
20283;SDS011;10301;50.832;4.080;2022-11-18T05:14:15;7.83;;;2.40;;
20283;SDS011;10301;50.832;4.080;2022-11-18T05:16:41;7.97;;;2.60;;
20283;SDS011;10301;50.832;4.080;2022-11-18T05:19:07;7.10;;;2.80;;
20283;SDS011;10301;50.832;4.080;2022-11-18T05:21:33;9.17;;;2.60;;
20283;SDS011;10301;50.832;4.080;2022-11-18T05:23:59;8.40;;;2.50;;
20283;SDS011;10301;50.832;4.080;2022-11-18T05:26:25;6.73;;;2.60;;
20283;SDS011;10301;50.832;4.080;2022-11-18T05:28:51;8.83;;;2.53;;
20283;SDS011;10301;50.832;4.080;2022-11-18T05:31:17;10.67;;;2.90;;
20283;SDS011;10301;50.832;4.080;2022-11-18T05:33:42;7.13;;;2.93;;
20283;SDS011;10301;50.832;4.080;2022-11-18T05:36:10;10.27;;;2.80;;
20283;SDS011;10301;50.832;4.080;2022-11-18T05:38:38;8.30;;;2.83;;
20283;SDS011;10301;50.832;4.080;2022-11-18T05:41:03;9.43;;;3.13;;
20283;SDS011;10301;50.832;4.080;2022-11-18T05:43:30;9.87;;;2.80;;
20283;SDS011;10301;50.832;4.080;2022-11-18T05:45:56;8.87;;;2.67;;
20283;SDS011;10301;50.832;4.080;2022-11-18T05:48:22;7.87;;;2.73;;
20283;SDS011;10301;50.832;4.080;2022-11-18T05:50:49;11.20;;;2.60;;
20283;SDS011;10301;50.832;4.080;2022-11-18T05:53:19;11.63;;;3.10;;
20283;SDS011;10301;50.832;4.080;2022-11-18T05:55:48;8.43;;;3.00;;
20283;SDS011;10301;50.832;4.080;2022-11-18T05:58:22;13.43;;;3.03;;
20283;SDS011;10301;50.832;4.080;2022-11-18T06:00:49;10.40;;;3.03;;
20283;SDS011;10301;50.832;4.080;2022-11-18T06:03:18;8.43;;;2.40;;
20283;SDS011;10301;50.832;4.080;2022-11-18T06:05:48;4.80;;;2.20;;
20283;SDS011;10301;50.832;4.080;2022-11-18T06:08:16;9.07;;;2.40;;
20283;SDS011;10301;50.832;4.080;2022-11-18T06:10:43;10.47;;;2.77;;
20283;SDS011;10301;50.832;4.080;2022-11-18T06:13:15;8.83;;;2.93;;
20283;SDS011;10301;50.832;4.080;2022-11-18T06:15:49;9.50;;;2.70;;
20283;SDS011;10301;50.832;4.080;2022-11-18T06:18:17;9.07;;;2.60;;
20283;SDS011;10301;50.832;4.080;2022-11-18T06:20:47;9.77;;;3.10;;
20283;SDS011;10301;50.832;4.080;2022-11-18T06:23:15;7.10;;;2.97;;
20283;SDS011;10301;50.832;4.080;2022-11-18T06:25:41;10.17;;;3.67;;
20283;SDS011;10301;50.832;4.080;2022-11-18T06:28:07;12.03;;;3.43;;
20283;SDS011;10301;50.832;4.080;2022-11-18T06:30:34;6.60;;;2.70;;
20283;SDS011;10301;50.832;4.080;2022-11-18T06:33:00;14.10;;;3.30;;
20283;SDS011;10301;50.832;4.080;2022-11-18T06:35:25;10.37;;;3.13;;
20283;SDS011;10301;50.832;4.080;2022-11-18T06:37:51;7.97;;;3.30;;
20283;SDS011;10301;50.832;4.080;2022-11-18T06:40:17;9.00;;;3.23;;
20283;SDS011;10301;50.832;4.080;2022-11-18T06:42:45;9.53;;;3.00;;
20283;SDS011;10301;50.832;4.080;2022-11-18T06:45:29;8.00;;;2.87;;
20283;SDS011;10301;50.832;4.080;2022-11-18T06:47:55;8.13;;;2.83;;
20283;SDS011;10301;50.832;4.080;2022-11-18T06:50:22;10.00;;;3.30;;
20283;SDS011;10301;50.832;4.080;2022-11-18T06:52:48;11.63;;;2.70;;
20283;SDS011;10301;50.832;4.080;2022-11-18T06:55:13;9.77;;;3.07;;
20283;SDS011;10301;50.832;4.080;2022-11-18T06:57:39;6.90;;;2.70;;
20283;SDS011;10301;50.832;4.080;2022-11-18T07:00:05;10.33;;;3.63;;
20283;SDS011;10301;50.832;4.080;2022-11-18T07:02:31;8.93;;;2.83;;
20283;SDS011;10301;50.832;4.080;2022-11-18T07:04:59;9.90;;;3.10;;
20283;SDS011;10301;50.832;4.080;2022-11-18T07:07:25;9.13;;;2.63;;
20283;SDS011;10301;50.832;4.080;2022-11-18T07:09:51;8.23;;;2.73;;
20283;SDS011;10301;50.832;4.080;2022-11-18T07:12:16;12.90;;;3.10;;
20283;SDS011;10301;50.832;4.080;2022-11-18T07:14:42;8.77;;;3.40;;
20283;SDS011;10301;50.832;4.080;2022-11-18T07:17:08;10.90;;;3.23;;
20283;SDS011;10301;50.832;4.080;2022-11-18T07:19:33;10.50;;;3.00;;
20283;SDS011;10301;50.832;4.080;2022-11-18T07:21:59;10.70;;;2.80;;
20283;SDS011;10301;50.832;4.080;2022-11-18T07:24:25;12.77;;;3.07;;
20283;SDS011;10301;50.832;4.080;2022-11-18T07:26:51;10.87;;;2.60;;
20283;SDS011;10301;50.832;4.080;2022-11-18T07:29:18;8.17;;;3.10;;
20283;SDS011;10301;50.832;4.080;2022-11-18T07:31:43;14.87;;;3.00;;
20283;SDS011;10301;50.832;4.080;2022-11-18T07:34:09;10.10;;;2.57;;
20283;SDS011;10301;50.832;4.080;2022-11-18T07:36:36;9.00;;;2.87;;
20283;SDS011;10301;50.832;4.080;2022-11-18T07:39:04;7.40;;;3.37;;
20283;SDS011;10301;50.832;4.080;2022-11-18T07:41:30;5.30;;;2.70;;
20283;SDS011;10301;50.832;4.080;2022-11-18T07:43:58;11.73;;;3.10;;
20283;SDS011;10301;50.832;4.080;2022-11-18T07:46:26;7.67;;;2.57;;
20283;SDS011;10301;50.832;4.080;2022-11-18T07:48:53;7.77;;;2.90;;
20283;SDS011;10301;50.832;4.080;2022-11-18T07:51:21;7.50;;;3.30;;
20283;SDS011;10301;50.832;4.080;2022-11-18T07:53:51;10.63;;;3.50;;
20283;SDS011;10301;50.832;4.080;2022-11-18T07:56:17;10.37;;;3.80;;
20283;SDS011;10301;50.832;4.080;2022-11-18T07:58:44;12.77;;;3.73;;
20283;SDS011;10301;50.832;4.080;2022-11-18T08:01:11;11.13;;;3.40;;
20283;SDS011;10301;50.832;4.080;2022-11-18T08:03:44;13.87;;;4.93;;
20283;SDS011;10301;50.832;4.080;2022-11-18T08:06:11;13.33;;;4.93;;
20283;SDS011;10301;50.832;4.080;2022-11-18T08:08:40;14.63;;;4.73;;
20283;SDS011;10301;50.832;4.080;2022-11-18T08:11:07;8.93;;;4.37;;
20283;SDS011;10301;50.832;4.080;2022-11-18T08:13:35;12.57;;;4.37;;
20283;SDS011;10301;50.832;4.080;2022-11-18T08:16:02;14.23;;;3.57;;
20283;SDS011;10301;50.832;4.080;2022-11-18T08:18:29;9.77;;;3.40;;
20283;SDS011;10301;50.832;4.080;2022-11-18T08:21:05;7.50;;;3.13;;
20283;SDS011;10301;50.832;4.080;2022-11-18T08:23:31;23.23;;;4.30;;
20283;SDS011;10301;50.832;4.080;2022-11-18T08:26:05;12.43;;;3.10;;
20283;SDS011;10301;50.832;4.080;2022-11-18T08:28:33;11.73;;;3.50;;
20283;SDS011;10301;50.832;4.080;2022-11-18T08:30:59;9.17;;;3.33;;
20283;SDS011;10301;50.832;4.080;2022-11-18T08:33:32;11.60;;;3.70;;
20283;SDS011;10301;50.832;4.080;2022-11-18T08:35:57;9.93;;;2.93;;
20283;SDS011;10301;50.832;4.080;2022-11-18T08:38:39;11.50;;;2.90;;
20283;SDS011;10301;50.832;4.080;2022-11-18T08:41:05;9.90;;;3.30;;
20283;SDS011;10301;50.832;4.080;2022-11-18T08:43:32;9.50;;;3.37;;
20283;SDS011;10301;50.832;4.080;2022-11-18T08:46:00;13.80;;;3.27;;
20283;SDS011;10301;50.832;4.080;2022-11-18T08:48:26;10.87;;;3.33;;
20283;SDS011;10301;50.832;4.080;2022-11-18T08:50:55;9.00;;;3.03;;
20283;SDS011;10301;50.832;4.080;2022-11-18T08:53:22;12.87;;;3.10;;
20283;SDS011;10301;50.832;4.080;2022-11-18T08:55:53;8.70;;;2.80;;
20283;SDS011;10301;50.832;4.080;2022-11-18T08:58:19;7.63;;;2.77;;
20283;SDS011;10301;50.832;4.080;2022-11-18T09:00:45;7.33;;;2.50;;
20283;SDS011;10301;50.832;4.080;2022-11-18T09:03:11;14.03;;;3.30;;
20283;SDS011;10301;50.832;4.080;2022-11-18T09:05:36;7.00;;;2.77;;
20283;SDS011;10301;50.832;4.080;2022-11-18T09:08:02;20.67;;;4.23;;
20283;SDS011;10301;50.832;4.080;2022-11-18T09:10:28;10.27;;;2.80;;
20283;SDS011;10301;50.832;4.080;2022-11-18T09:12:53;6.67;;;2.33;;
20283;SDS011;10301;50.832;4.080;2022-11-18T09:15:20;12.03;;;2.87;;
20283;SDS011;10301;50.832;4.080;2022-11-18T09:17:48;8.17;;;2.60;;
20283;SDS011;10301;50.832;4.080;2022-11-18T09:20:15;11.00;;;3.00;;
20283;SDS011;10301;50.832;4.080;2022-11-18T09:22:41;8.33;;;2.80;;
20283;SDS011;10301;50.832;4.080;2022-11-18T09:25:07;11.83;;;2.90;;
20283;SDS011;10301;50.832;4.080;2022-11-18T09:27:33;9.93;;;2.40;;
20283;SDS011;10301;50.832;4.080;2022-11-18T09:29:58;10.77;;;2.90;;
20283;SDS011;10301;50.832;4.080;2022-11-18T09:32:24;5.77;;;2.07;;
20283;SDS011;10301;50.832;4.080;2022-11-18T09:34:50;11.50;;;2.30;;
20283;SDS011;10301;50.832;4.080;2022-11-18T09:37:15;9.63;;;2.20;;
20283;SDS011;10301;50.832;4.080;2022-11-18T09:39:41;9.97;;;3.07;;
20283;SDS011;10301;50.832;4.080;2022-11-18T09:49:47;8.80;;;2.83;;
20283;SDS011;10301;50.832;4.080;2022-11-18T09:54:44;10.40;;;2.90;;
20283;SDS011;10301;50.832;4.080;2022-11-18T09:57:12;10.27;;;2.53;;
20283;SDS011;10301;50.832;4.080;2022-11-18T09:59:44;13.53;;;2.87;;
20283;SDS011;10301;50.832;4.080;2022-11-18T10:02:32;7.20;;;2.37;;
20283;SDS011;10301;50.832;4.080;2022-11-18T10:05:12;8.53;;;2.67;;
20283;SDS011;10301;50.832;4.080;2022-11-18T10:07:48;5.60;;;1.67;;
20283;SDS011;10301;50.832;4.080;2022-11-18T10:11:16;11.53;;;2.60;;
20283;SDS011;10301;50.832;4.080;2022-11-18T10:16:10;7.00;;;2.00;;
20283;SDS011;10301;50.832;4.080;2022-11-18T10:26:49;10.63;;;2.40;;
20283;SDS011;10301;50.832;4.080;2022-11-18T10:29:22;8.38;;;2.55;;
20283;SDS011;10301;50.832;4.080;2022-11-18T10:31:53;8.93;;;2.57;;
20283;SDS011;10301;50.832;4.080;2022-11-18T10:34:25;7.07;;;2.33;;
20283;SDS011;10301;50.832;4.080;2022-11-18T10:37:01;7.33;;;2.10;;
20283;SDS011;10301;50.832;4.080;2022-11-18T10:39:30;9.57;;;2.40;;
20283;SDS011;10301;50.832;4.080;2022-11-18T10:42:05;9.40;;;2.22;;
20283;SDS011;10301;50.832;4.080;2022-11-18T10:44:40;7.40;;;2.67;;
20283;SDS011;10301;50.832;4.080;2022-11-18T10:47:28;11.40;;;3.00;;
20283;SDS011;10301;50.832;4.080;2022-11-18T10:49:55;9.85;;;2.33;;
20283;SDS011;10301;50.832;4.080;2022-11-18T10:52:22;7.97;;;2.40;;
20283;SDS011;10301;50.832;4.080;2022-11-18T10:57:43;6.63;;;2.60;;
20283;SDS011;10301;50.832;4.080;2022-11-18T11:03:07;7.43;;;2.37;;
20283;SDS011;10301;50.832;4.080;2022-11-18T11:05:47;6.40;;;2.10;;
20283;SDS011;10301;50.832;4.080;2022-11-18T11:08:20;9.07;;;2.07;;
20283;SDS011;10301;50.832;4.080;2022-11-18T11:10:57;7.75;;;2.00;;
20283;SDS011;10301;50.832;4.080;2022-11-18T11:13:26;6.88;;;2.15;;
20283;SDS011;10301;50.832;4.080;2022-11-18T11:15:55;12.02;;;2.60;;
20283;SDS011;10301;50.832;4.080;2022-11-18T11:18:26;9.82;;;2.10;;
20283;SDS011;10301;50.832;4.080;2022-11-18T11:21:15;8.38;;;2.17;;
20283;SDS011;10301;50.832;4.080;2022-11-18T11:23:49;8.23;;;2.25;;
20283;SDS011;10301;50.832;4.080;2022-11-18T11:29:17;9.70;;;2.50;;
20283;SDS011;10301;50.832;4.080;2022-11-18T11:32:14;6.78;;;2.22;;
20283;SDS011;10301;50.832;4.080;2022-11-18T11:34:56;6.85;;;2.00;;
20283;SDS011;10301;50.832;4.080;2022-11-18T11:46:29;7.80;;;2.17;;
20283;SDS011;10301;50.832;4.080;2022-11-18T11:52:49;6.53;;;2.20;;
20283;SDS011;10301;50.832;4.080;2022-11-18T11:55:18;7.55;;;2.15;;
20283;SDS011;10301;50.832;4.080;2022-11-18T12:00:50;8.90;;;2.90;;
20283;SDS011;10301;50.832;4.080;2022-11-18T12:03:43;6.88;;;3.38;;
20283;SDS011;10301;50.832;4.080;2022-11-18T12:06:17;6.70;;;2.45;;
20283;SDS011;10301;50.832;4.080;2022-11-18T12:08:54;6.88;;;2.45;;
20283;SDS011;10301;50.832;4.080;2022-11-18T12:11:36;7.88;;;2.75;;
20283;SDS011;10301;50.832;4.080;2022-11-18T12:14:24;10.50;;;2.80;;
20283;SDS011;10301;50.832;4.080;2022-11-18T12:17:04;6.85;;;2.42;;
20283;SDS011;10301;50.832;4.080;2022-11-18T12:19:41;6.82;;;2.10;;
20283;SDS011;10301;50.832;4.080;2022-11-18T12:22:07;7.97;;;2.38;;
20283;SDS011;10301;50.832;4.080;2022-11-18T12:24:36;9.15;;;2.33;;
20283;SDS011;10301;50.832;4.080;2022-11-18T12:27:04;9.50;;;2.78;;
20283;SDS011;10301;50.832;4.080;2022-11-18T12:29:43;7.05;;;2.28;;
20283;SDS011;10301;50.832;4.080;2022-11-18T12:51:48;6.20;;;2.08;;
20283;SDS011;10301;50.832;4.080;2022-11-18T12:56:49;10.10;;;2.47;;
20283;SDS011;10301;50.832;4.080;2022-11-18T12:59:15;6.18;;;2.20;;
20283;SDS011;10301;50.832;4.080;2022-11-18T13:01:50;8.10;;;2.30;;
20283;SDS011;10301;50.832;4.080;2022-11-18T13:04:31;10.55;;;3.60;;
20283;SDS011;10301;50.832;4.080;2022-11-18T13:06:57;9.50;;;2.05;;
20283;SDS011;10301;50.832;4.080;2022-11-18T13:09:24;8.43;;;2.10;;
20283;SDS011;10301;50.832;4.080;2022-11-18T13:11:54;7.15;;;2.00;;
20283;SDS011;10301;50.832;4.080;2022-11-18T13:14:34;7.47;;;1.80;;
20283;SDS011;10301;50.832;4.080;2022-11-18T13:23:01;8.70;;;2.10;;
20283;SDS011;10301;50.832;4.080;2022-11-18T13:25:48;7.32;;;2.30;;
20283;SDS011;10301;50.832;4.080;2022-11-18T13:28:27;9.45;;;2.58;;
20283;SDS011;10301;50.832;4.080;2022-11-18T13:33:59;8.25;;;1.83;;
20283;SDS011;10301;50.832;4.080;2022-11-18T13:36:34;9.50;;;2.38;;
20283;SDS011;10301;50.832;4.080;2022-11-18T13:39:15;7.25;;;2.67;;
20283;SDS011;10301;50.832;4.080;2022-11-18T13:42:24;11.68;;;2.53;;
20283;SDS011;10301;50.832;4.080;2022-11-18T13:44:59;9.57;;;2.47;;
20283;SDS011;10301;50.832;4.080;2022-11-18T13:50:34;7.97;;;2.20;;
20283;SDS011;10301;50.832;4.080;2022-11-18T13:55:52;7.32;;;2.20;;
20283;SDS011;10301;50.832;4.080;2022-11-18T13:58:25;9.13;;;2.28;;
20283;SDS011;10301;50.832;4.080;2022-11-18T14:01:02;10.73;;;2.60;;
20283;SDS011;10301;50.832;4.080;2022-11-18T14:08:50;7.30;;;2.65;;
20283;SDS011;10301;50.832;4.080;2022-11-18T14:11:37;4.90;;;2.05;;
20283;SDS011;10301;50.832;4.080;2022-11-18T14:14:04;8.45;;;2.60;;
20283;SDS011;10301;50.832;4.080;2022-11-18T14:16:32;7.07;;;2.80;;
20283;SDS011;10301;50.832;4.080;2022-11-18T14:19:00;9.48;;;2.33;;
20283;SDS011;10301;50.832;4.080;2022-11-18T14:21:32;8.52;;;2.50;;
20283;SDS011;10301;50.832;4.080;2022-11-18T14:24:00;8.10;;;2.20;;
20283;SDS011;10301;50.832;4.080;2022-11-18T14:28:57;9.15;;;2.17;;
20283;SDS011;10301;50.832;4.080;2022-11-18T14:31:25;8.77;;;1.80;;
20283;SDS011;10301;50.832;4.080;2022-11-18T14:36:40;7.40;;;1.77;;
20283;SDS011;10301;50.832;4.080;2022-11-18T14:39:18;12.90;;;3.70;;
20283;SDS011;10301;50.832;4.080;2022-11-18T14:41:55;13.57;;;3.53;;
20283;SDS011;10301;50.832;4.080;2022-11-18T14:44:22;7.88;;;2.13;;
20283;SDS011;10301;50.832;4.080;2022-11-18T14:46:56;7.88;;;2.13;;
20283;SDS011;10301;50.832;4.080;2022-11-18T14:49:30;9.45;;;1.63;;
20283;SDS011;10301;50.832;4.080;2022-11-18T14:51:57;7.20;;;1.75;;
20283;SDS011;10301;50.832;4.080;2022-11-18T14:54:23;9.60;;;2.00;;
20283;SDS011;10301;50.832;4.080;2022-11-18T14:56:50;10.48;;;2.53;;
20283;SDS011;10301;50.832;4.080;2022-11-18T14:59:18;7.50;;;2.20;;
20283;SDS011;10301;50.832;4.080;2022-11-18T15:01:45;9.55;;;2.13;;
20283;SDS011;10301;50.832;4.080;2022-11-18T15:04:11;10.75;;;2.22;;
20283;SDS011;10301;50.832;4.080;2022-11-18T15:06:38;8.57;;;1.92;;
20283;SDS011;10301;50.832;4.080;2022-11-18T15:09:04;6.28;;;1.88;;
20283;SDS011;10301;50.832;4.080;2022-11-18T15:11:32;10.25;;;2.40;;
20283;SDS011;10301;50.832;4.080;2022-11-18T15:13:58;8.13;;;2.10;;
20283;SDS011;10301;50.832;4.080;2022-11-18T15:16:25;10.30;;;2.25;;
20283;SDS011;10301;50.832;4.080;2022-11-18T15:18:53;6.90;;;2.05;;
20283;SDS011;10301;50.832;4.080;2022-11-18T15:21:21;8.05;;;2.08;;
20283;SDS011;10301;50.832;4.080;2022-11-18T15:23:47;6.45;;;2.00;;
20283;SDS011;10301;50.832;4.080;2022-11-18T15:28:49;7.93;;;2.63;;
20283;SDS011;10301;50.832;4.080;2022-11-18T15:31:17;7.05;;;2.22;;
20283;SDS011;10301;50.832;4.080;2022-11-18T15:33:43;8.93;;;2.60;;
20283;SDS011;10301;50.832;4.080;2022-11-18T15:36:14;8.07;;;2.63;;
20283;SDS011;10301;50.832;4.080;2022-11-18T15:38:41;7.07;;;3.03;;
20283;SDS011;10301;50.832;4.080;2022-11-18T15:41:17;8.45;;;2.95;;
20283;SDS011;10301;50.832;4.080;2022-11-18T15:43:50;7.65;;;1.85;;
20283;SDS011;10301;50.832;4.080;2022-11-18T15:46:17;11.80;;;2.72;;
20283;SDS011;10301;50.832;4.080;2022-11-18T15:48:44;9.93;;;2.70;;
20283;SDS011;10301;50.832;4.080;2022-11-18T15:51:10;7.13;;;2.40;;
20283;SDS011;10301;50.832;4.080;2022-11-18T15:53:36;8.13;;;2.65;;
20283;SDS011;10301;50.832;4.080;2022-11-18T15:56:47;9.05;;;2.90;;
20283;SDS011;10301;50.832;4.080;2022-11-18T16:01:33;7.75;;;3.30;;
20283;SDS011;10301;50.832;4.080;2022-11-18T16:04:02;7.25;;;2.00;;
20283;SDS011;10301;50.832;4.080;2022-11-18T16:06:30;11.35;;;2.63;;
20283;SDS011;10301;50.832;4.080;2022-11-18T16:08:56;8.73;;;2.78;;
20283;SDS011;10301;50.832;4.080;2022-11-18T16:11:22;9.82;;;3.35;;
20283;SDS011;10301;50.832;4.080;2022-11-18T16:14:07;10.65;;;3.90;;
20283;SDS011;10301;50.832;4.080;2022-11-18T16:16:34;9.57;;;3.10;;
20283;SDS011;10301;50.832;4.080;2022-11-18T16:19:05;11.10;;;3.53;;
20283;SDS011;10301;50.832;4.080;2022-11-18T16:21:33;11.45;;;3.55;;
20283;SDS011;10301;50.832;4.080;2022-11-18T16:24:00;9.27;;;3.55;;
20283;SDS011;10301;50.832;4.080;2022-11-18T16:26:27;9.32;;;2.60;;
20283;SDS011;10301;50.832;4.080;2022-11-18T16:28:57;9.50;;;3.53;;
20283;SDS011;10301;50.832;4.080;2022-11-18T16:31:23;10.07;;;3.17;;
20283;SDS011;10301;50.832;4.080;2022-11-18T16:34:13;8.35;;;2.83;;
20283;SDS011;10301;50.832;4.080;2022-11-18T16:36:51;12.02;;;2.97;;
20283;SDS011;10301;50.832;4.080;2022-11-18T16:39:19;8.45;;;3.00;;
20283;SDS011;10301;50.832;4.080;2022-11-18T16:41:49;9.43;;;3.05;;
20283;SDS011;10301;50.832;4.080;2022-11-18T16:44:19;11.35;;;2.85;;
20283;SDS011;10301;50.832;4.080;2022-11-18T16:46:46;9.73;;;3.88;;
20283;SDS011;10301;50.832;4.080;2022-11-18T16:49:14;10.70;;;4.30;;
20283;SDS011;10301;50.832;4.080;2022-11-18T16:51:41;17.88;;;5.75;;
20283;SDS011;10301;50.832;4.080;2022-11-18T16:54:18;11.25;;;4.60;;
20283;SDS011;10301;50.832;4.080;2022-11-18T16:56:46;12.07;;;3.88;;
20283;SDS011;10301;50.832;4.080;2022-11-18T16:59:13;10.95;;;3.97;;
20283;SDS011;10301;50.832;4.080;2022-11-18T17:01:41;10.20;;;3.88;;